createdAt,value
2023-05-03T00:01:19.271Z,1.73
2023-05-03T00:03:46.024Z,2.07
2023-05-03T00:06:16.259Z,2.13
2023-05-03T00:08:43.643Z,1.90
2023-05-03T00:11:10.599Z,1.80
2023-05-03T00:13:37.446Z,1.53
2023-05-03T00:16:04.183Z,1.87
2023-05-03T00:18:30.909Z,1.60
2023-05-03T00:20:59.564Z,1.73
2023-05-03T00:23:26.865Z,1.73
2023-05-03T00:25:54.764Z,2.17
2023-05-03T00:28:21.449Z,1.53
2023-05-03T00:30:47.966Z,1.77
2023-05-03T00:33:16.593Z,1.50
2023-05-03T00:35:43.829Z,1.80
2023-05-03T00:38:11.262Z,1.87
2023-05-03T00:40:37.831Z,1.43
2023-05-03T00:43:04.400Z,2.00
2023-05-03T00:45:32.686Z,2.00
2023-05-03T00:47:59.694Z,1.93
2023-05-03T00:50:26.343Z,1.90
2023-05-03T00:52:52.958Z,1.83
2023-05-03T00:55:20.239Z,2.57
2023-05-03T00:57:46.944Z,1.53
2023-05-03T01:00:14.204Z,2.13
2023-05-03T01:02:41.193Z,2.40
2023-05-03T01:05:08.089Z,2.50
2023-05-03T01:07:55.657Z,2.23
2023-05-03T01:10:41.014Z,1.97
2023-05-03T01:13:35.748Z,2.97
2023-05-03T01:16:08.357Z,1.83
2023-05-03T01:18:39.377Z,2.13
2023-05-03T01:21:07.960Z,2.03
2023-05-03T01:23:51.308Z,2.53
2023-05-03T01:26:17.848Z,2.67
2023-05-03T01:28:44.505Z,1.50
2023-05-03T01:31:12.079Z,1.70
2023-05-03T01:33:50.408Z,2.10
2023-05-03T01:36:26.941Z,1.80
2023-05-03T01:38:57.634Z,2.37
2023-05-03T01:41:29.311Z,2.00
2023-05-03T01:43:57.051Z,2.07
2023-05-03T01:46:23.925Z,1.87
2023-05-03T01:48:50.613Z,2.13
2023-05-03T01:51:17.430Z,2.23
2023-05-03T01:53:44.079Z,2.00
2023-05-03T01:56:10.644Z,1.80
2023-05-03T01:58:37.222Z,1.57
2023-05-03T02:01:08.109Z,1.77
2023-05-03T02:03:34.894Z,2.63
2023-05-03T02:06:02.178Z,1.80
2023-05-03T02:08:28.765Z,1.97
2023-05-03T02:10:55.373Z,2.50
2023-05-03T02:13:21.891Z,2.10
2023-05-03T02:15:48.488Z,1.57
2023-05-03T02:18:16.559Z,3.00
2023-05-03T02:20:49.470Z,1.87
2023-05-03T02:23:16.134Z,3.33
2023-05-03T02:25:42.784Z,1.73
2023-05-03T02:28:09.406Z,2.10
2023-05-03T02:30:36.193Z,2.03
2023-05-03T02:33:02.962Z,2.07
2023-05-03T02:35:29.627Z,3.23
2023-05-03T02:37:57.062Z,2.20
2023-05-03T02:40:23.661Z,2.43
2023-05-03T02:42:50.232Z,1.83
2023-05-03T02:45:16.800Z,1.77
2023-05-03T02:47:43.379Z,2.00
2023-05-03T02:50:10.119Z,2.03
2023-05-03T02:52:36.670Z,2.37
2023-05-03T02:55:03.412Z,2.17
2023-05-03T02:57:29.932Z,2.50
2023-05-03T02:59:56.531Z,2.27
2023-05-03T03:02:23.088Z,2.80
2023-05-03T03:04:49.689Z,2.70
2023-05-03T03:07:16.337Z,2.00
2023-05-03T03:09:42.851Z,2.07
2023-05-03T03:12:09.530Z,2.17
2023-05-03T03:14:36.152Z,2.07
2023-05-03T03:17:03.490Z,1.90
2023-05-03T03:19:30.042Z,2.37
2023-05-03T03:21:56.556Z,2.30
2023-05-03T03:24:23.108Z,2.33
2023-05-03T03:26:49.677Z,1.80
2023-05-03T03:29:16.313Z,2.53
2023-05-03T03:31:46.292Z,2.23
2023-05-03T03:34:13.904Z,2.27
2023-05-03T03:36:40.503Z,2.53
2023-05-03T03:39:07.363Z,2.13
2023-05-03T03:41:34.118Z,2.83
2023-05-03T03:44:00.624Z,1.70
2023-05-03T03:46:27.309Z,2.80
2023-05-03T03:48:53.930Z,3.00
2023-05-03T03:51:20.551Z,1.93
2023-05-03T03:53:47.384Z,2.57
2023-05-03T03:56:13.954Z,2.33
2023-05-03T03:58:40.646Z,3.17
2023-05-03T04:01:07.298Z,2.70
2023-05-03T04:03:33.931Z,2.07
2023-05-03T04:06:00.799Z,2.37
2023-05-03T04:08:27.525Z,1.97
2023-05-03T04:10:53.985Z,2.47
2023-05-03T04:13:20.604Z,1.77
2023-05-03T04:15:47.161Z,2.27
2023-05-03T04:18:13.832Z,2.20
2023-05-03T04:20:40.445Z,2.50
2023-05-03T04:23:06.967Z,2.20
2023-05-03T04:25:33.561Z,2.67
2023-05-03T04:28:00.154Z,2.83
2023-05-03T04:30:26.726Z,2.40
2023-05-03T04:32:55.601Z,3.10
2023-05-03T04:35:22.402Z,3.30
2023-05-03T04:37:49.022Z,2.97
2023-05-03T04:40:17.473Z,2.93
2023-05-03T04:42:44.060Z,2.07
2023-05-03T04:45:11.089Z,2.77
2023-05-03T04:47:37.729Z,2.40
2023-05-03T04:50:04.784Z,2.37
2023-05-03T04:52:32.369Z,2.40
2023-05-03T04:54:59.007Z,2.90
2023-05-03T04:57:26.131Z,2.90
2023-05-03T04:59:54.341Z,2.57
2023-05-03T05:02:21.744Z,3.67
2023-05-03T05:04:48.534Z,2.53
2023-05-03T05:07:15.378Z,2.67
2023-05-03T05:09:41.997Z,3.30
2023-05-03T05:12:09.083Z,2.43
2023-05-03T05:14:35.665Z,3.03
2023-05-03T05:17:02.387Z,2.63
2023-05-03T05:19:28.969Z,2.77
2023-05-03T05:21:55.782Z,2.97
2023-05-03T05:24:22.755Z,2.40
2023-05-03T05:26:52.464Z,2.37
2023-05-03T05:29:19.099Z,3.23
2023-05-03T05:31:45.818Z,2.67
2023-05-03T05:34:12.381Z,3.17
2023-05-03T05:36:39.089Z,3.10
2023-05-03T05:39:05.632Z,2.90
2023-05-03T05:41:32.244Z,2.37
2023-05-03T05:43:59.228Z,2.77
2023-05-03T05:46:25.978Z,2.10
2023-05-03T05:48:52.661Z,2.17
2023-05-03T05:51:19.223Z,2.57
2023-05-03T05:53:45.804Z,2.67
2023-05-03T05:56:12.703Z,2.93
2023-05-03T05:58:39.301Z,2.17
2023-05-03T06:01:06.231Z,2.47
2023-05-03T06:03:35.859Z,2.17
2023-05-03T06:06:02.706Z,2.67
2023-05-03T06:08:29.489Z,1.87
2023-05-03T06:10:56.168Z,1.60
2023-05-03T06:13:23.179Z,2.17
2023-05-03T06:15:49.710Z,1.90
2023-05-03T06:18:16.728Z,1.33
2023-05-03T06:20:43.417Z,2.07
2023-05-03T06:23:10.482Z,1.23
2023-05-03T06:25:36.959Z,1.43
2023-05-03T06:28:03.962Z,1.70
2023-05-03T06:30:31.181Z,1.97
2023-05-03T06:32:57.706Z,1.30
2023-05-03T06:35:24.296Z,1.80
2023-05-03T06:37:51.025Z,1.57
2023-05-03T06:40:19.160Z,1.70
2023-05-03T06:42:45.955Z,1.20
2023-05-03T06:45:12.562Z,1.57
2023-05-03T06:47:42.813Z,1.30
2023-05-03T06:50:10.774Z,1.67
2023-05-03T06:52:37.498Z,1.40
2023-05-03T06:55:05.068Z,1.27
2023-05-03T06:57:31.785Z,1.20
2023-05-03T06:59:58.356Z,1.13
2023-05-03T07:02:26.879Z,1.00
2023-05-03T07:04:53.757Z,1.00
2023-05-03T07:07:20.606Z,0.97
2023-05-03T07:09:47.694Z,1.07
2023-05-03T07:12:14.312Z,1.10
2023-05-03T07:14:40.928Z,1.03
2023-05-03T07:17:08.303Z,0.90
2023-05-03T07:19:35.039Z,2.80
2023-05-03T07:22:03.560Z,1.00
2023-05-03T07:24:30.167Z,1.20
2023-05-03T07:26:58.818Z,0.90
2023-05-03T07:29:26.405Z,0.80
2023-05-03T07:31:53.735Z,1.10
2023-05-03T07:34:20.887Z,0.80
2023-05-03T07:36:47.539Z,0.73
2023-05-03T07:39:24.136Z,1.40
2023-05-03T07:41:50.860Z,1.10
2023-05-03T07:44:17.528Z,0.60
2023-05-03T07:46:44.135Z,0.80
2023-05-03T07:49:10.936Z,0.77
2023-05-03T07:51:38.855Z,1.00
2023-05-03T07:54:06.324Z,0.80
2023-05-03T07:56:33.311Z,1.27
2023-05-03T07:59:09.535Z,1.00
2023-05-03T08:01:37.623Z,0.80
2023-05-03T08:04:04.929Z,0.77
2023-05-03T08:06:32.902Z,0.67
2023-05-03T08:08:59.753Z,0.97
2023-05-03T08:11:27.800Z,1.07
2023-05-03T08:13:54.441Z,0.93
2023-05-03T08:16:21.501Z,0.77
2023-05-03T08:18:48.269Z,0.67
2023-05-03T08:21:15.212Z,0.60
2023-05-03T08:23:42.619Z,0.87
2023-05-03T08:26:10.947Z,0.93
2023-05-03T08:28:38.052Z,1.10
2023-05-03T08:31:05.211Z,0.80
2023-05-03T08:33:32.126Z,1.33
2023-05-03T08:35:58.749Z,1.00
2023-05-03T08:38:25.849Z,0.80
2023-05-03T08:40:55.363Z,1.23
2023-05-03T08:43:27.368Z,1.17
2023-05-03T08:45:53.934Z,1.03
2023-05-03T08:48:21.186Z,1.10
2023-05-03T08:50:51.706Z,1.33
2023-05-03T08:53:18.471Z,1.55
2023-05-03T08:55:45.475Z,1.33
2023-05-03T08:58:13.436Z,1.60
2023-05-03T09:00:45.037Z,1.35
2023-05-03T09:03:12.524Z,1.08
2023-05-03T09:05:40.613Z,1.35
2023-05-03T09:08:12.968Z,1.00
2023-05-03T09:10:43.184Z,1.63
2023-05-03T09:13:10.769Z,2.30
2023-05-03T09:15:37.881Z,2.50
2023-05-03T09:18:12.049Z,1.52
2023-05-03T09:20:40.477Z,0.85
2023-05-03T09:23:09.110Z,0.93
2023-05-03T09:25:46.184Z,1.23
2023-05-03T09:28:14.372Z,1.20
2023-05-03T09:30:41.577Z,1.10
2023-05-03T09:33:08.650Z,1.52
2023-05-03T09:35:35.293Z,2.80
2023-05-03T09:38:02.224Z,1.42
2023-05-03T09:40:29.522Z,1.15
2023-05-03T09:43:09.906Z,1.30
2023-05-03T09:45:39.534Z,1.13
2023-05-03T09:48:07.693Z,1.00
2023-05-03T09:50:36.761Z,0.98
2023-05-03T09:53:06.773Z,1.58
2023-05-03T09:55:35.673Z,0.95
2023-05-03T09:58:08.961Z,1.25
2023-05-03T10:00:40.589Z,1.15
2023-05-03T10:03:12.590Z,1.30
2023-05-03T10:05:49.956Z,1.77
2023-05-03T10:08:27.090Z,1.27
2023-05-03T10:10:54.591Z,1.10
2023-05-03T10:13:23.141Z,1.30
2023-05-03T10:16:14.262Z,1.40
2023-05-03T10:18:53.931Z,1.20
2023-05-03T10:21:58.975Z,1.33
2023-05-03T10:24:26.021Z,1.75
2023-05-03T10:26:52.574Z,1.67
2023-05-03T10:29:49.238Z,0.93
2023-05-03T10:32:35.283Z,1.10
2023-05-03T10:35:13.924Z,1.00
2023-05-03T10:37:41.395Z,1.40
2023-05-03T10:40:16.477Z,1.20
2023-05-03T10:42:50.605Z,1.17
2023-05-03T10:45:26.724Z,1.00
2023-05-03T10:48:11.664Z,1.10
2023-05-03T10:50:42.455Z,1.25
2023-05-03T10:53:09.810Z,1.00
2023-05-03T10:55:36.562Z,1.10
2023-05-03T10:58:04.062Z,1.33
2023-05-03T11:00:33.815Z,1.52
2023-05-03T11:03:12.529Z,1.20
2023-05-03T11:05:39.683Z,1.10
2023-05-03T11:08:10.402Z,1.42
2023-05-03T11:10:36.946Z,1.30
2023-05-03T11:13:03.569Z,1.45
2023-05-03T11:15:31.038Z,1.05
2023-05-03T11:17:57.685Z,1.42
2023-05-03T11:20:24.339Z,1.38
2023-05-03T11:22:51.855Z,1.15
2023-05-03T11:25:19.081Z,1.55
2023-05-03T11:27:47.912Z,2.50
2023-05-03T11:30:15.070Z,1.08
2023-05-03T11:32:43.260Z,1.17
2023-05-03T11:35:10.963Z,0.98
2023-05-03T11:37:37.656Z,1.10
2023-05-03T11:40:05.158Z,1.40
2023-05-03T11:42:31.789Z,0.88
2023-05-03T11:44:58.461Z,1.23
2023-05-03T11:47:26.313Z,1.52
2023-05-03T11:49:57.929Z,1.55
2023-05-03T11:52:27.383Z,0.90
2023-05-03T11:54:54.544Z,1.20
2023-05-03T11:57:21.836Z,0.93
2023-05-03T11:59:49.847Z,1.45
2023-05-03T12:02:16.989Z,1.38
2023-05-03T12:04:45.477Z,1.25
2023-05-03T12:07:15.145Z,0.88
2023-05-03T12:09:44.833Z,0.70
2023-05-03T12:12:23.749Z,1.20
2023-05-03T12:15:01.910Z,1.23
2023-05-03T12:17:44.081Z,1.10
2023-05-03T12:22:57.752Z,0.95
2023-05-03T12:25:27.697Z,1.15
2023-05-03T12:30:33.701Z,1.40
2023-05-03T12:33:03.682Z,1.00
2023-05-03T12:35:34.025Z,1.10
2023-05-03T12:38:03.433Z,1.15
2023-05-03T12:40:34.056Z,1.10
2023-05-03T12:43:01.868Z,0.90
2023-05-03T12:45:33.615Z,1.27
2023-05-03T12:48:01.118Z,0.90
2023-05-03T12:50:31.223Z,1.17
2023-05-03T12:53:01.933Z,0.77
2023-05-03T12:55:34.600Z,0.95
2023-05-03T13:00:35.994Z,1.08
2023-05-03T13:05:36.336Z,1.10
2023-05-03T13:08:09.222Z,1.20
2023-05-03T13:10:41.424Z,0.80
2023-05-03T13:13:09.495Z,1.13
2023-05-03T13:15:37.589Z,1.10
2023-05-03T13:18:07.945Z,1.45
2023-05-03T13:20:37.109Z,1.02
2023-05-03T13:23:04.649Z,0.88
2023-05-03T13:25:31.434Z,1.38
2023-05-03T13:28:01.934Z,0.80
2023-05-03T13:30:28.759Z,1.00
2023-05-03T13:32:55.538Z,0.68
2023-05-03T13:35:22.494Z,0.70
2023-05-03T13:37:49.214Z,0.90
2023-05-03T13:40:16.396Z,0.93
2023-05-03T13:42:43.055Z,1.00
2023-05-03T13:45:10.398Z,0.82
2023-05-03T13:47:59.520Z,0.70
2023-05-03T13:50:23.867Z,1.42
2023-05-03T13:52:50.572Z,0.93
2023-05-03T13:55:42.229Z,0.63
2023-05-03T13:58:08.939Z,0.77
2023-05-03T14:00:35.534Z,1.88
2023-05-03T14:03:23.128Z,0.68
2023-05-03T14:05:49.889Z,0.93
2023-05-03T14:08:17.932Z,1.00
2023-05-03T14:10:44.980Z,1.33
2023-05-03T14:13:11.657Z,0.80
2023-05-03T14:15:45.506Z,1.77
2023-05-03T14:18:12.348Z,0.90
2023-05-03T14:20:39.343Z,0.90
2023-05-03T14:23:06.372Z,0.73
2023-05-03T14:25:33.121Z,1.02
2023-05-03T14:28:01.877Z,1.15
2023-05-03T14:30:30.288Z,0.95
2023-05-03T14:32:58.884Z,1.63
2023-05-03T14:35:29.861Z,0.75
2023-05-03T14:37:59.905Z,0.57
2023-05-03T14:40:28.468Z,1.83
2023-05-03T14:42:55.642Z,1.10
2023-05-03T14:45:25.488Z,0.90
2023-05-03T14:47:52.179Z,0.90
2023-05-03T14:50:19.471Z,1.37
2023-05-03T14:52:46.093Z,1.08
2023-05-03T14:55:12.738Z,1.50
2023-05-03T14:57:39.738Z,1.35
2023-05-03T15:00:17.471Z,1.08
2023-05-03T15:02:48.132Z,1.15
2023-05-03T15:05:15.343Z,1.42
2023-05-03T15:07:42.666Z,1.17
2023-05-03T15:10:11.468Z,1.07
2023-05-03T15:12:39.761Z,1.50
2023-05-03T15:15:13.024Z,1.00
2023-05-03T15:17:49.593Z,1.30
2023-05-03T15:20:31.291Z,1.27
2023-05-03T15:23:31.401Z,1.00
2023-05-03T15:26:29.671Z,1.10
2023-05-03T15:28:56.362Z,1.87
2023-05-03T15:31:28.756Z,0.73
2023-05-03T15:34:02.828Z,1.40
2023-05-03T15:36:29.639Z,1.10
2023-05-03T15:38:59.567Z,0.90
2023-05-03T15:41:27.327Z,1.40
2023-05-03T15:43:55.192Z,1.10
2023-05-03T15:46:23.430Z,1.10
2023-05-03T15:48:50.051Z,1.97
2023-05-03T15:51:16.825Z,1.20
2023-05-03T15:53:43.727Z,1.00
2023-05-03T15:56:11.822Z,0.90
2023-05-03T15:58:48.927Z,1.03
2023-05-03T16:01:24.252Z,1.07
2023-05-03T16:03:51.496Z,1.00
2023-05-03T16:06:18.575Z,0.83
2023-05-03T16:08:45.822Z,0.83
2023-05-03T16:11:12.890Z,0.80
2023-05-03T16:13:39.666Z,1.20
2023-05-03T16:16:06.810Z,1.00
2023-05-03T16:18:33.505Z,0.73
2023-05-03T16:21:01.484Z,0.90
2023-05-03T16:23:28.209Z,1.17
2023-05-03T16:25:54.777Z,0.87
2023-05-03T16:28:21.615Z,1.10
2023-05-03T16:30:48.408Z,1.27
2023-05-03T16:33:15.095Z,1.10
2023-05-03T16:35:41.797Z,1.10
2023-05-03T16:38:08.447Z,0.83
2023-05-03T16:40:35.006Z,1.00
2023-05-03T16:43:01.613Z,0.90
2023-05-03T16:45:28.604Z,1.27
2023-05-03T16:47:55.394Z,1.10
2023-05-03T16:50:22.005Z,1.00
2023-05-03T16:52:48.587Z,1.23
2023-05-03T16:55:15.070Z,1.40
2023-05-03T16:57:41.939Z,0.70
2023-05-03T17:00:10.179Z,1.20
2023-05-03T17:02:38.981Z,1.20
2023-05-03T17:05:07.887Z,1.33
2023-05-03T17:07:35.722Z,1.07
2023-05-03T17:10:03.807Z,1.60
2023-05-03T17:12:31.229Z,1.67
2023-05-03T17:14:57.852Z,3.10
2023-05-03T17:17:30.127Z,1.37
2023-05-03T17:19:57.201Z,1.63
2023-05-03T17:22:23.809Z,0.83
2023-05-03T17:24:50.717Z,1.10
2023-05-03T17:27:17.285Z,1.20
2023-05-03T17:29:44.368Z,1.13
2023-05-03T17:32:11.105Z,1.10
2023-05-03T17:34:37.804Z,1.13
2023-05-03T17:37:05.666Z,2.43
2023-05-03T17:39:32.599Z,1.07
2023-05-03T17:41:59.332Z,1.10
2023-05-03T17:44:26.291Z,1.97
2023-05-03T17:46:53.536Z,1.27
2023-05-03T17:49:20.098Z,1.60
2023-05-03T17:51:46.662Z,1.53
2023-05-03T17:54:13.332Z,1.27
2023-05-03T17:56:39.922Z,1.33
2023-05-03T17:59:06.803Z,1.33
2023-05-03T18:01:33.530Z,1.30
2023-05-03T18:04:00.249Z,1.30
2023-05-03T18:06:28.137Z,1.10
2023-05-03T18:08:54.935Z,1.60
2023-05-03T18:11:23.030Z,1.30
2023-05-03T18:13:49.562Z,2.07
2023-05-03T18:16:17.279Z,2.03
2023-05-03T18:18:44.152Z,1.53
2023-05-03T18:21:11.927Z,1.40
2023-05-03T18:23:38.629Z,1.93
2023-05-03T18:26:05.631Z,2.20
2023-05-03T18:28:32.238Z,2.73
2023-05-03T18:30:59.296Z,1.87
2023-05-03T18:33:26.149Z,2.20
2023-05-03T18:35:53.280Z,2.00
2023-05-03T18:38:21.895Z,2.40
2023-05-03T18:40:49.845Z,1.93
2023-05-03T18:43:16.939Z,1.97
2023-05-03T18:45:43.707Z,1.90
2023-05-03T18:48:10.687Z,2.17
2023-05-03T18:50:43.038Z,1.80
2023-05-03T18:53:13.229Z,1.97
2023-05-03T18:55:40.132Z,1.90
2023-05-03T18:58:06.714Z,2.50
2023-05-03T19:00:33.625Z,2.43
2023-05-03T19:03:01.341Z,2.37
2023-05-03T19:05:28.181Z,3.03
2023-05-03T19:07:54.997Z,2.80
2023-05-03T19:10:21.697Z,1.80
2023-05-03T19:12:48.611Z,2.00
2023-05-03T19:15:15.236Z,1.70
2023-05-03T19:17:42.265Z,2.23
2023-05-03T19:20:10.516Z,2.30
2023-05-03T19:22:37.414Z,2.37
2023-05-03T19:25:05.064Z,2.33
2023-05-03T19:27:32.126Z,2.50
2023-05-03T19:29:58.830Z,2.27
2023-05-03T19:32:25.537Z,2.13
2023-05-03T19:34:52.110Z,2.50
2023-05-03T19:37:18.689Z,2.40
2023-05-03T19:39:45.663Z,2.40
2023-05-03T19:42:12.262Z,2.10
2023-05-03T19:44:38.964Z,1.53
2023-05-03T19:47:05.749Z,2.23
2023-05-03T19:49:32.661Z,2.27
2023-05-03T19:51:59.157Z,2.33
2023-05-03T19:54:26.357Z,2.20
2023-05-03T19:56:53.515Z,2.43
2023-05-03T19:59:20.143Z,2.60
2023-05-03T20:01:46.720Z,1.80
2023-05-03T20:04:13.448Z,1.80
2023-05-03T20:06:40.179Z,1.80
2023-05-03T20:09:06.858Z,1.53
2023-05-03T20:11:33.513Z,1.60
2023-05-03T20:14:00.047Z,1.70
2023-05-03T20:16:32.487Z,1.83
2023-05-03T20:19:00.128Z,1.60
2023-05-03T20:21:26.697Z,1.97
2023-05-03T20:23:53.210Z,1.40
2023-05-03T20:26:19.802Z,1.73
2023-05-03T20:28:46.430Z,1.63
2023-05-03T20:31:13.813Z,2.43
2023-05-03T20:33:40.367Z,1.70
2023-05-03T20:36:07.332Z,1.63
2023-05-03T20:38:34.638Z,1.67
2023-05-03T20:41:01.201Z,1.57
2023-05-03T20:43:27.687Z,2.57
2023-05-03T20:45:55.311Z,1.67
2023-05-03T20:48:21.986Z,2.43
2023-05-03T20:50:50.104Z,1.77
2023-05-03T20:53:18.155Z,1.40
2023-05-03T20:55:44.645Z,1.60
2023-05-03T20:58:12.408Z,1.53
2023-05-03T21:00:39.825Z,1.70
2023-05-03T21:03:06.407Z,2.33
2023-05-03T21:05:33.050Z,1.80
2023-05-03T21:08:00.423Z,2.17
2023-05-03T21:10:27.017Z,1.90
2023-05-03T21:12:53.844Z,1.73
2023-05-03T21:15:20.517Z,1.80
2023-05-03T21:17:47.763Z,1.90
2023-05-03T21:20:14.635Z,1.97
2023-05-03T21:22:41.190Z,2.60
2023-05-03T21:25:08.298Z,2.20
2023-05-03T21:27:35.407Z,1.60
2023-05-03T21:30:02.247Z,1.50
2023-05-03T21:32:29.225Z,2.43
2023-05-03T21:34:57.925Z,2.67
2023-05-03T21:37:24.566Z,2.03
2023-05-03T21:40:01.057Z,1.60
2023-05-03T21:42:29.235Z,2.13
2023-05-03T21:44:55.952Z,1.60
2023-05-03T21:47:22.552Z,2.10
2023-05-03T21:49:49.123Z,1.40
2023-05-03T21:52:16.116Z,2.07
2023-05-03T21:54:42.877Z,2.37
2023-05-03T21:57:09.503Z,1.50
2023-05-03T21:59:36.804Z,1.90
2023-05-03T22:02:03.430Z,1.80
2023-05-03T22:04:30.903Z,1.77
2023-05-03T22:06:58.284Z,2.13
2023-05-03T22:09:24.922Z,1.70
2023-05-03T22:11:51.558Z,1.90
2023-05-03T22:14:19.112Z,2.10
2023-05-03T22:16:45.758Z,1.43
2023-05-03T22:19:12.373Z,1.70
2023-05-03T22:21:39.985Z,2.13
2023-05-03T22:24:07.558Z,1.77
2023-05-03T22:26:34.173Z,1.80
2023-05-03T22:29:01.413Z,2.17
2023-05-03T22:31:30.269Z,1.97
2023-05-03T22:33:57.324Z,1.67
2023-05-03T22:36:23.927Z,1.47
2023-05-03T22:38:50.703Z,1.97
2023-05-03T22:41:17.685Z,2.07
2023-05-03T22:43:44.243Z,1.83
2023-05-03T22:46:10.948Z,1.60
2023-05-03T22:48:37.947Z,1.93
2023-05-03T22:51:04.795Z,2.00
2023-05-03T22:53:31.304Z,1.97
2023-05-03T22:56:01.130Z,1.50
2023-05-03T22:58:28.381Z,2.03
2023-05-03T23:00:55.096Z,1.87
2023-05-03T23:03:22.533Z,2.30
2023-05-03T23:05:51.093Z,3.23
2023-05-03T23:08:17.876Z,3.30
2023-05-03T23:10:44.488Z,2.23
2023-05-03T23:13:11.591Z,1.80
2023-05-03T23:15:38.849Z,2.00
2023-05-03T23:18:05.675Z,2.20
2023-05-03T23:20:32.302Z,2.20
2023-05-03T23:22:58.747Z,1.83
2023-05-03T23:25:25.549Z,1.93
2023-05-03T23:27:52.235Z,2.30
2023-05-03T23:30:19.310Z,2.57
2023-05-03T23:32:47.057Z,2.03
2023-05-03T23:35:15.168Z,1.57
2023-05-03T23:37:41.698Z,1.80
2023-05-03T23:40:08.623Z,2.03
2023-05-03T23:42:35.732Z,1.47
2023-05-03T23:45:02.378Z,1.77
2023-05-03T23:47:28.939Z,2.17
2023-05-03T23:49:55.936Z,1.93
2023-05-03T23:52:22.450Z,1.87
2023-05-03T23:54:49.010Z,1.73
2023-05-03T23:57:15.830Z,2.30
2023-05-03T23:59:42.463Z,2.00
